Prairie Rose, North Dakota
Current Conditions -  °F | °C
As of 12:53 PM on Friday 21 Nov 2014 (Local Time) from KFAR Reporting Station
Clear Clear  
Wind Chill: -6°   Ceiling: Unl
Heat Index:   Visibility: 10mi
Dew Point: -6°   Wind: 20mph
Humidity: 61%   Direction: 180°S
Pressure: 29.79"   Gusts: NA
Location:  46.8079°N, 96.8643°W
Report Text: KFAR 211853Z 18017KT 10SM CLR 01/M06 A2979 RMK AO2 PK WND 19026/1812 SLP102 T00061061
Loading
Personal Weather Stations






























Interactive Weather Map New forecast layout! Learn more

10-Day Weather Forecast

Advertisements
Track Severe Weather on mobile